Time;durP1;ratioP1;P1;durP2;ratioP2;P2;SDS_P1;SDS_P2;PMS_P1;PMS_P2;Temp;Humidity;BMP_temperature;BMP_pressure;BME280_temperature;BME280_humidity;BME280_pressure;Samples;Min_cycle;Max_cycle;Signal;HPM_P1;HPM_P2
2022/06/07 00:00:44;;;;;;;1.30;1.00;;;17.30;66.30;;;;;;5128866;27;20043;-68
2022/06/07 00:03:10;;;;;;;2.25;0.88;;;17.30;66.30;;;;;;5129038;28;20088;-69
2022/06/07 00:05:37;;;;;;;1.45;1.20;;;17.30;66.30;;;;;;5129133;28;20429;-68
2022/06/07 00:08:02;;;;;;;1.90;1.45;;;17.30;66.40;;;;;;5128793;28;20044;-68
2022/06/07 00:10:28;;;;;;;3.00;1.15;;;17.30;66.40;;;;;;5146270;27;20044;-68
2022/06/07 00:12:57;;;;;;;1.70;1.05;;;17.30;66.40;;;;;;5129940;28;20394;-68
2022/06/07 00:15:22;;;;;;;1.70;1.42;;;17.30;66.40;;;;;;5129746;28;20049;-69
2022/06/07 00:17:48;;;;;;;1.35;1.00;;;17.20;66.30;;;;;;5130069;28;20110;-69
2022/06/07 00:20:14;;;;;;;2.45;1.13;;;17.30;66.30;;;;;;5128512;28;20035;-67
2022/06/07 00:22:41;;;;;;;1.85;1.13;;;17.30;66.30;;;;;;5129777;27;20483;-68
2022/06/07 00:25:10;;;;;;;2.28;0.93;;;17.30;66.30;;;;;;5128867;28;20044;-66
2022/06/07 00:27:36;;;;;;;2.55;1.10;;;17.20;66.30;;;;;;5128612;28;20165;-67
2022/06/07 00:30:02;;;;;;;2.70;1.50;;;17.30;66.40;;;;;;5129617;28;20171;-67
2022/06/07 00:32:29;;;;;;;1.85;1.30;;;17.20;66.30;;;;;;5129833;27;20035;-67
2022/06/07 00:34:54;;;;;;;1.65;1.50;;;17.20;66.30;;;;;;5128261;28;20088;-68
2022/06/07 00:37:20;;;;;;;2.85;1.30;;;17.20;66.40;;;;;;5128246;28;20450;-66
2022/06/07 00:39:46;;;;;;;2.03;0.85;;;17.20;66.30;;;;;;5145665;27;20038;-67
2022/06/07 00:42:12;;;;;;;1.27;0.90;;;17.20;66.30;;;;;;5128246;28;20655;-68
2022/06/07 00:44:41;;;;;;;1.65;1.15;;;17.20;66.40;;;;;;5128244;28;20042;-68
2022/06/07 00:47:12;;;;;;;1.92;1.30;;;17.20;66.40;;;;;;5129381;27;20122;-69
2022/06/07 00:52:31;;;;;;;1.60;1.10;;;17.20;66.50;;;;;;5089382;27;20385;-69
2022/06/07 00:54:57;;;;;;;1.75;1.20;;;17.20;66.40;;;;;;5090361;28;20097;-68
2022/06/07 00:57:24;;;;;;;1.98;1.08;;;17.20;66.50;;;;;;5088812;28;20045;-68
2022/06/07 00:59:51;;;;;;;1.95;1.00;;;17.20;66.50;;;;;;5088504;28;20438;-68
2022/06/07 01:02:17;;;;;;;1.90;1.40;;;17.20;66.40;;;;;;5088287;28;20036;-67
2022/06/07 01:04:43;;;;;;;1.80;1.08;;;17.20;66.50;;;;;;5088160;28;20079;-68
2022/06/07 01:12:40;;;;;;;1.83;1.55;;;17.20;66.50;;;;;;5087632;28;20060;-67
2022/06/07 01:15:08;;;;;;;1.98;1.00;;;17.20;66.50;;;;;;5087670;28;20055;-69
2022/06/07 01:17:33;;;;;;;2.47;1.10;;;17.20;66.50;;;;;;5087731;28;20044;-67
2022/06/07 01:19:59;;;;;;;1.58;1.10;;;17.20;66.50;;;;;;5088846;28;20048;-68
2022/06/07 01:22:25;;;;;;;1.95;0.90;;;17.20;66.50;;;;;;5088795;28;20040;-67
2022/06/07 01:24:52;;;;;;;2.22;1.25;;;17.20;66.60;;;;;;5087724;28;20051;-68
2022/06/07 01:27:18;;;;;;;1.80;1.30;;;17.20;66.50;;;;;;5087536;28;20377;-68
2022/06/07 01:29:43;;;;;;;1.30;1.05;;;17.20;66.60;;;;;;5087436;28;20047;-66
2022/06/07 01:32:11;;;;;;;1.42;1.15;;;17.20;66.50;;;;;;5087377;28;20055;-69
2022/06/07 01:34:39;;;;;;;1.00;0.80;;;17.20;66.50;;;;;;5087589;28;20036;-69
2022/06/07 01:37:05;;;;;;;2.78;1.23;;;17.20;67.20;;;;;;5087671;28;20040;-68
2022/06/07 01:42:16;;;;;;;1.77;1.15;;;17.20;66.50;;;;;;5087950;28;20060;-68
2022/06/07 01:44:47;;;;;;;1.60;1.20;;;17.20;66.50;;;;;;5087144;28;20044;-68
2022/06/07 01:47:16;;;;;;;1.67;1.23;;;17.10;66.40;;;;;;5087345;28;20079;-68
2022/06/07 01:49:42;;;;;;;1.58;1.27;;;17.20;66.50;;;;;;5087370;28;20040;-68
2022/06/07 01:52:09;;;;;;;1.70;1.15;;;17.10;66.40;;;;;;5086649;28;20413;-68
2022/06/07 01:54:35;;;;;;;1.30;1.00;;;17.20;66.50;;;;;;5087000;28;20123;-68
2022/06/07 01:57:00;;;;;;;2.00;1.30;;;17.10;66.40;;;;;;5086899;28;20123;-68
2022/06/07 01:59:26;;;;;;;1.83;1.15;;;17.20;66.40;;;;;;5086929;28;20040;-67
2022/06/07 02:01:53;;;;;;;2.20;1.65;;;17.20;66.40;;;;;;5085366;28;20045;-68
2022/06/07 02:04:21;;;;;;;2.25;1.30;;;17.20;66.40;;;;;;5073608;28;20400;-68
2022/06/07 02:06:47;;;;;;;1.30;1.17;;;17.20;66.40;;;;;;5073190;28;20036;-68
2022/06/07 02:09:13;;;;;;;2.70;1.17;;;17.10;66.40;;;;;;5073220;28;20055;-67
2022/06/07 02:11:39;;;;;;;1.35;0.95;;;17.10;66.40;;;;;;5073061;28;20052;-68
2022/06/07 02:14:06;;;;;;;1.65;1.20;;;17.10;66.40;;;;;;5074766;28;20043;-68
2022/06/07 02:16:32;;;;;;;1.50;1.30;;;17.10;66.30;;;;;;5073273;28;20518;-68
2022/06/07 02:18:58;;;;;;;0.82;0.55;;;17.10;66.40;;;;;;5073389;28;20044;-68
2022/06/07 02:21:24;;;;;;;2.70;0.95;;;17.10;66.40;;;;;;5073200;28;20061;-67
2022/06/07 02:23:50;;;;;;;1.35;0.85;;;17.10;66.40;;;;;;5073104;28;20134;-68
2022/06/07 02:31:53;;;;;;;2.65;1.10;;;17.10;66.40;;;;;;5130204;27;20354;-67
2022/06/07 02:34:20;;;;;;;3.00;1.55;;;17.10;66.40;;;;;;5129228;28;20043;-67
2022/06/07 02:36:48;;;;;;;1.25;0.98;;;17.10;66.40;;;;;;5129166;28;20047;-66
2022/06/07 02:39:15;;;;;;;1.50;0.95;;;17.10;66.40;;;;;;5129140;28;20079;-68
2022/06/07 02:41:42;;;;;;;2.70;0.85;;;17.10;66.40;;;;;;5128804;28;20482;-69
2022/06/07 02:44:07;;;;;;;1.88;1.23;;;17.10;66.40;;;;;;5128765;28;20402;-67
2022/06/07 02:46:33;;;;;;;1.50;1.10;;;17.10;66.30;;;;;;5128965;28;20046;-67
2022/06/07 02:48:59;;;;;;;1.52;1.27;;;17.10;66.40;;;;;;5128649;28;20035;-66
2022/06/07 02:51:24;;;;;;;1.77;1.30;;;17.10;66.40;;;;;;5128719;28;20028;-69
2022/06/07 02:53:50;;;;;;;2.67;1.10;;;17.10;66.30;;;;;;5128567;28;20028;-68
2022/06/07 02:56:16;;;;;;;2.10;1.15;;;17.10;66.30;;;;;;5130152;28;20046;-69
2022/06/07 02:58:41;;;;;;;1.52;1.00;;;17.10;66.30;;;;;;5128646;28;20368;-69
2022/06/07 03:01:07;;;;;;;1.65;1.00;;;17.10;66.30;;;;;;5128448;28;20431;-69
2022/06/07 03:03:33;;;;;;;2.28;1.00;;;17.10;66.30;;;;;;5128599;28;20126;-68
2022/06/07 03:05:59;;;;;;;1.80;1.40;;;17.10;66.30;;;;;;5128638;28;20047;-70
2022/06/07 03:08:26;;;;;;;1.58;1.00;;;17.10;66.40;;;;;;5128551;28;20497;-68
2022/06/07 03:10:52;;;;;;;1.45;1.13;;;17.10;66.30;;;;;;5128333;28;20039;-68
2022/06/07 03:13:18;;;;;;;1.33;1.02;;;17.00;66.30;;;;;;5128161;28;20392;-68
2022/06/07 03:15:45;;;;;;;1.48;1.13;;;17.10;66.40;;;;;;5128431;28;20447;-68
2022/06/07 03:18:11;;;;;;;2.70;1.20;;;17.10;66.30;;;;;;5128331;28;20236;-68
2022/06/07 03:20:37;;;;;;;1.63;1.35;;;17.10;66.30;;;;;;5128387;28;20130;-69
2022/06/07 03:23:04;;;;;;;2.13;1.10;;;17.10;66.30;;;;;;5128225;28;20051;-67
2022/06/07 03:25:30;;;;;;;1.35;0.82;;;17.10;66.30;;;;;;5128345;28;20035;-69
2022/06/07 03:27:56;;;;;;;1.83;1.25;;;17.10;66.30;;;;;;5128295;28;20031;-68
2022/06/07 03:30:21;;;;;;;1.98;1.40;;;17.00;66.30;;;;;;5127646;28;20482;-69
2022/06/07 03:32:47;;;;;;;1.63;1.00;;;17.10;66.20;;;;;;5128054;28;20050;-66
2022/06/07 03:35:14;;;;;;;1.73;0.90;;;17.10;66.20;;;;;;5127979;28;20435;-66
2022/06/07 03:37:42;;;;;;;1.95;0.85;;;17.10;66.20;;;;;;5129134;27;20050;-68
2022/06/07 03:40:10;;;;;;;2.25;1.20;;;17.10;66.10;;;;;;5127689;28;20051;-69
2022/06/07 03:42:36;;;;;;;1.50;1.05;;;17.10;66.10;;;;;;5118399;27;20632;-69
2022/06/07 03:45:03;;;;;;;1.30;1.10;;;17.10;66.10;;;;;;5114196;28;20307;-68
2022/06/07 03:47:28;;;;;;;1.17;0.90;;;17.10;66.00;;;;;;5114070;28;20491;-69
2022/06/07 03:49:54;;;;;;;1.65;1.30;;;17.10;66.00;;;;;;5114965;28;20040;-69
2022/06/07 03:52:20;;;;;;;0.90;0.57;;;17.20;65.90;;;;;;5114109;28;20036;-69
2022/06/07 03:54:46;;;;;;;2.33;1.13;;;17.20;65.90;;;;;;5115163;28;20440;-66
2022/06/07 03:57:12;;;;;;;1.52;1.10;;;17.20;65.90;;;;;;5115078;28;20071;-67
2022/06/07 03:59:38;;;;;;;2.70;1.13;;;17.20;65.90;;;;;;5113621;28;20052;-68
2022/06/07 04:02:06;;;;;;;1.17;1.00;;;17.20;65.80;;;;;;5114887;28;20028;-68
2022/06/07 04:04:33;;;;;;;1.38;1.23;;;17.20;65.80;;;;;;5113818;28;20448;-67
2022/06/07 04:09:45;;;;;;;1.55;0.93;;;17.10;65.80;;;;;;5114510;28;20051;-67
2022/06/07 04:12:14;;;;;;;2.30;1.67;;;17.10;65.80;;;;;;5113450;28;20521;-68
2022/06/07 04:14:41;;;;;;;1.83;1.42;;;17.10;65.80;;;;;;5113381;28;20560;-68
2022/06/07 04:17:08;;;;;;;2.80;1.83;;;17.10;65.80;;;;;;5113771;28;20081;-68
2022/06/07 04:19:35;;;;;;;2.35;1.15;;;17.10;65.80;;;;;;5113624;28;20035;-69
2022/06/07 04:22:01;;;;;;;1.38;1.17;;;17.10;65.80;;;;;;5114451;28;20039;-69
2022/06/07 04:24:27;;;;;;;2.53;1.40;;;17.10;65.80;;;;;;5113449;28;20118;-68
2022/06/07 04:26:52;;;;;;;2.05;1.50;;;17.10;66.20;;;;;;5113338;28;20119;-69
2022/06/07 04:29:18;;;;;;;1.55;1.30;;;17.10;65.80;;;;;;5113409;28;20387;-68
2022/06/07 04:31:44;;;;;;;3.28;1.73;;;17.10;65.80;;;;;;5112558;28;20281;-68
2022/06/07 04:34:10;;;;;;;2.67;1.30;;;17.10;65.80;;;;;;5113244;28;20044;-68
2022/06/07 04:36:37;;;;;;;1.77;1.35;;;17.10;65.80;;;;;;5114323;28;20047;-68
2022/06/07 04:39:05;;;;;;;2.60;1.58;;;17.10;65.80;;;;;;5114293;28;20036;-69
2022/06/07 04:41:30;;;;;;;2.38;1.40;;;17.10;65.70;;;;;;5112868;28;20040;-68
2022/06/07 04:43:57;;;;;;;1.90;1.23;;;17.10;65.70;;;;;;5112875;28;20046;-68
2022/06/07 04:46:24;;;;;;;1.60;1.50;;;17.10;65.70;;;;;;5112578;28;20044;-69
2022/06/07 04:48:50;;;;;;;2.28;1.45;;;17.10;65.60;;;;;;5114060;28;20067;-70
2022/06/07 04:51:21;;;;;;;2.10;1.65;;;17.10;65.70;;;;;;5112609;28;20047;-67
2022/06/07 04:53:48;;;;;;;1.42;1.30;;;17.10;65.60;;;;;;5112898;28;20039;-69
2022/06/07 04:56:19;;;;;;;3.10;1.70;;;17.10;65.70;;;;;;5113956;28;20441;-66
2022/06/07 04:58:44;;;;;;;;;;;17.10;65.50;;;;;;5113111;28;20043;-69
2022/06/07 05:01:14;;;;;;;2.03;1.17;;;17.10;65.50;;;;;;5112787;28;19971;-69
2022/06/07 05:03:40;;;;;;;2.30;1.50;;;17.10;65.40;;;;;;5112416;28;20031;-69
2022/06/07 05:09:10;;;;;;;2.35;1.92;;;17.20;65.40;;;;;;5151004;27;20131;-66
2022/06/07 05:11:39;;;;;;;2.40;1.40;;;17.20;65.30;;;;;;5129135;28;20388;-68
2022/06/07 05:14:06;;;;;;;2.42;1.17;;;17.20;65.30;;;;;;5130457;27;20058;-68
2022/06/07 05:16:35;;;;;;;1.85;1.15;;;17.20;65.30;;;;;;5128837;28;20036;-70
2022/06/07 05:19:01;;;;;;;1.85;1.23;;;17.20;65.20;;;;;;5110464;28;20079;-68
2022/06/07 05:21:27;;;;;;;2.85;0.90;;;17.20;65.20;;;;;;5112113;28;20066;-72
2022/06/07 05:23:53;;;;;;;1.52;1.13;;;17.30;65.60;;;;;;5107395;28;20040;-73
2022/06/07 05:29:00;;;;;;;3.88;1.50;;;17.30;65.80;;;;;;5088665;28;20413;-73
2022/06/07 05:31:26;;;;;;;2.63;1.98;;;17.40;65.70;;;;;;5077084;28;20514;-66
2022/06/07 05:33:53;;;;;;;2.75;1.60;;;17.40;65.80;;;;;;5086073;28;20044;-68
2022/06/07 05:36:24;;;;;;;3.97;2.10;;;17.50;65.60;;;;;;5067287;28;20492;-69
2022/06/07 05:38:50;;;;;;;2.45;2.10;;;17.50;65.50;;;;;;5064260;28;20605;-67
2022/06/07 05:41:21;;;;;;;2.75;2.17;;;17.60;65.40;;;;;;5068113;28;20082;-69
2022/06/07 05:43:46;;;;;;;2.35;2.05;;;17.60;65.40;;;;;;5066253;28;20064;-69
2022/06/07 05:46:12;;;;;;;2.90;2.08;;;17.60;65.30;;;;;;5071154;28;20425;-67
2022/06/07 05:48:38;;;;;;;3.90;2.67;;;17.60;65.40;;;;;;5071229;28;20438;-69
2022/06/07 05:51:04;;;;;;;2.90;2.20;;;17.60;65.40;;;;;;5048565;28;20539;-69
2022/06/07 05:53:30;;;;;;;3.92;2.88;;;17.60;65.20;;;;;;5072054;28;20050;-68
2022/06/07 05:55:56;;;;;;;3.47;2.33;;;17.60;65.10;;;;;;5078422;28;20086;-68
2022/06/07 05:58:22;;;;;;;3.53;3.17;;;17.60;65.00;;;;;;5065908;28;20795;-68
2022/06/07 06:00:49;;;;;;;3.47;3.17;;;17.60;65.00;;;;;;5080372;28;20246;-70
2022/06/07 06:03:14;;;;;;;3.05;2.33;;;17.60;65.00;;;;;;5084881;28;20044;-69
2022/06/07 06:05:48;;;;;;;4.82;2.90;;;17.60;64.90;;;;;;5072767;28;20037;-69
2022/06/07 06:11:06;;;;;;;5.50;3.42;;;17.70;64.90;;;;;;5063936;28;20392;-67
2022/06/07 06:13:35;;;;;;;4.72;2.95;;;17.70;65.00;;;;;;5066485;28;20173;-69
2022/06/07 06:16:04;;;;;;;4.22;2.80;;;17.70;65.30;;;;;;5067947;28;20041;-67
2022/06/07 06:18:31;;;;;;;7.13;3.58;;;17.70;65.60;;;;;;5049917;28;20049;-65
2022/06/07 06:20:56;;;;;;;4.75;2.63;;;17.70;65.60;;;;;;5064358;28;20040;-71
2022/06/07 06:23:22;;;;;;;6.25;3.72;;;17.70;65.60;;;;;;5059689;28;20037;-71
2022/06/07 06:25:48;;;;;;;3.88;2.83;;;17.70;65.60;;;;;;5051673;28;20076;-71
2022/06/07 06:28:16;;;;;;;5.32;2.60;;;17.70;65.60;;;;;;5052695;28;20052;-71
2022/06/07 06:30:44;;;;;;;5.22;2.25;;;17.70;65.60;;;;;;5050375;28;20037;-71
2022/06/07 06:33:13;;;;;;;2.75;2.10;;;17.70;65.50;;;;;;5053421;28;20753;-70
2022/06/07 06:35:39;;;;;;;4.65;2.15;;;17.80;65.60;;;;;;5052464;28;20088;-70
2022/06/07 06:38:05;;;;;;;2.38;2.15;;;17.80;65.50;;;;;;5056236;28;20052;-71
2022/06/07 06:40:31;;;;;;;2.88;1.92;;;17.80;65.50;;;;;;5035721;28;20405;-71
2022/06/07 06:42:56;;;;;;;3.08;2.10;;;17.80;65.60;;;;;;5038350;28;20037;-72
2022/06/07 06:45:22;;;;;;;4.25;2.85;;;17.80;65.50;;;;;;5038040;28;20433;-71
2022/06/07 06:47:48;;;;;;;5.88;3.75;;;17.80;66.00;;;;;;5036384;28;20409;-68
2022/06/07 06:50:13;;;;;;;5.80;2.88;;;17.90;66.20;;;;;;5038664;28;20041;-69
2022/06/07 06:52:40;;;;;;;8.82;2.63;;;17.90;66.40;;;;;;5028971;28;20041;-69
2022/06/07 06:55:06;;;;;;;6.38;3.10;;;17.90;66.60;;;;;;5030784;28;20042;-70
2022/06/07 06:57:32;;;;;;;6.30;2.90;;;17.90;66.70;;;;;;5031250;28;20561;-69
2022/06/07 06:59:57;;;;;;;8.75;3.40;;;17.90;66.90;;;;;;5029697;28;20193;-69
2022/06/07 07:02:23;;;;;;;5.65;2.75;;;17.90;67.10;;;;;;5027749;28;20037;-71
2022/06/07 07:04:49;;;;;;;4.05;2.42;;;18.00;67.10;;;;;;5032402;28;20602;-71
2022/06/07 07:07:14;;;;;;;8.02;2.75;;;18.00;67.20;;;;;;5030547;28;20044;-70
2022/06/07 07:09:40;;;;;;;4.57;2.75;;;18.00;67.10;;;;;;5030618;28;20152;-69
2022/06/07 07:12:06;;;;;;;8.73;3.38;;;18.00;67.40;;;;;;5030904;28;20048;-73
2022/06/07 07:14:32;;;;;;;3.08;2.78;;;18.00;67.60;;;;;;5033038;28;20056;-69
2022/06/07 07:16:57;;;;;;;7.00;2.28;;;18.00;68.00;;;;;;5028423;28;20049;-73
2022/06/07 07:19:23;;;;;;;7.07;2.78;;;18.10;68.30;;;;;;5033236;28;20107;-69
2022/06/07 07:21:50;;;;;;;5.75;2.65;;;18.20;68.50;;;;;;5048120;28;20052;-71
2022/06/07 07:24:19;;;;;;;8.23;3.05;;;18.20;68.40;;;;;;5046649;28;20767;-72
2022/06/07 07:26:46;;;;;;;6.00;1.95;;;18.20;68.40;;;;;;5032215;28;20056;-71
2022/06/07 07:29:14;;;;;;;4.90;2.60;;;18.20;68.60;;;;;;5033799;28;20102;-73
2022/06/07 07:31:40;;;;;;;7.13;2.83;;;18.30;68.70;;;;;;5047890;28;20043;-73
2022/06/07 07:34:09;;;;;;;2.90;2.13;;;18.30;68.50;;;;;;5029372;28;20080;-68
2022/06/07 07:36:38;;;;;;;6.93;3.05;;;18.30;68.20;;;;;;5032714;28;20115;-73
2022/06/07 07:39:04;;;;;;;4.88;2.67;;;18.30;67.90;;;;;;5034977;28;20041;-72
2022/06/07 07:41:36;;;;;;;5.40;2.97;;;18.30;67.50;;;;;;5029928;28;20038;-69
2022/06/07 07:44:04;;;;;;;3.63;2.55;;;18.30;67.30;;;;;;5045538;28;20132;-68
2022/06/07 07:46:34;;;;;;;2.92;2.25;;;18.30;67.50;;;;;;5032659;28;20049;-71
2022/06/07 07:49:00;;;;;;;4.82;3.33;;;18.30;67.50;;;;;;5029540;28;20055;-69
2022/06/07 07:54:08;;;;;;;8.15;2.55;;;18.30;67.50;;;;;;5046166;28;20441;-71
2022/06/07 07:56:35;;;;;;;8.50;2.90;;;18.30;66.90;;;;;;5068388;28;20049;-73
2022/06/07 07:59:04;;;;;;;6.70;2.50;;;18.40;67.00;;;;;;5070174;28;20493;-71
2022/06/07 08:01:29;;;;;;;6.10;2.80;;;18.40;67.10;;;;;;5040815;28;20095;-69
2022/06/07 08:03:58;;;;;;;6.45;2.80;;;18.40;67.20;;;;;;5068505;28;20831;-73
2022/06/07 08:06:27;;;;;;;9.07;3.03;;;18.40;67.30;;;;;;5066672;28;20059;-71
2022/06/07 08:08:54;;;;;;;7.60;2.90;;;18.30;67.50;;;;;;5056898;28;20055;-72
2022/06/07 08:11:24;;;;;;;3.95;2.95;;;18.40;67.40;;;;;;5055513;28;20048;-72
2022/06/07 08:13:49;;;;;;;6.55;3.20;;;18.40;67.50;;;;;;5067275;28;21303;-71
2022/06/07 08:16:15;;;;;;;7.47;3.22;;;18.40;67.50;;;;;;5062083;28;20036;-70
2022/06/07 08:18:42;;;;;;;6.68;3.13;;;18.40;67.40;;;;;;5065361;28;20097;-70
2022/06/07 08:21:12;;;;;;;6.45;2.97;;;18.40;67.30;;;;;;5076122;28;20108;-71
2022/06/07 08:23:38;;;;;;;3.40;2.97;;;18.50;67.50;;;;;;5074443;28;20045;-70
2022/06/07 08:26:10;;;;;;;7.13;3.22;;;18.50;67.50;;;;;;5068126;28;20117;-69
2022/06/07 08:28:36;;;;;;;7.07;3.17;;;18.50;67.60;;;;;;5060433;28;20043;-72
2022/06/07 08:31:02;;;;;;;7.05;2.97;;;18.50;67.60;;;;;;5075273;28;20044;-73
2022/06/07 08:39:05;;;;;;;6.40;2.53;;;18.50;66.90;;;;;;5076444;28;20583;-70
2022/06/07 08:44:22;;;;;;;6.13;2.50;;;18.50;67.10;;;;;;5093687;27;20416;-73
2022/06/07 08:46:52;;;;;;;4.32;2.72;;;18.60;66.70;;;;;;5092309;28;20055;-73
2022/06/07 08:49:19;;;;;;;11.55;2.92;;;18.50;66.50;;;;;;5081863;28;20046;-71
2022/06/07 08:54:31;;;;;;;7.45;2.85;;;18.60;66.30;;;;;;5076790;27;20453;-71
2022/06/07 08:57:07;;;;;;;6.40;3.13;;;18.70;66.40;;;;;;5079465;28;20632;-73
2022/06/07 08:59:33;;;;;;;7.60;2.85;;;18.70;66.40;;;;;;5068879;28;20060;-73
2022/06/07 09:04:44;;;;;;;7.25;3.17;;;18.70;66.40;;;;;;5064813;27;21031;-72
2022/06/07 09:07:19;;;;;;;6.78;3.03;;;18.80;66.70;;;;;;5050588;28;20091;-72
2022/06/07 09:12:55;;;;;;;6.55;2.95;;;18.80;67.00;;;;;;5051279;28;20885;-72
2022/06/07 09:15:23;;;;;;;16.08;3.80;;;18.80;66.90;;;;;;5050402;28;20056;-74
2022/06/07 09:17:58;;;;;;;9.82;2.95;;;18.90;66.90;;;;;;5083334;28;20064;-72
2022/06/07 09:20:42;;;;;;;4.68;2.63;;;18.90;66.30;;;;;;5051404;28;20284;-72
2022/06/07 09:26:30;;;;;;;6.50;2.42;;;19.00;65.80;;;;;;5106873;27;20855;-74
2022/06/07 09:29:20;;;;;;;3.17;2.83;;;19.00;65.80;;;;;;5095465;28;20054;-75
2022/06/07 09:31:47;;;;;;;6.95;2.53;;;19.00;65.60;;;;;;5087968;28;20056;-75
2022/06/07 09:34:18;;;;;;;4.55;2.45;;;19.00;65.50;;;;;;5091783;28;20122;-74
2022/06/07 09:36:46;;;;;;;;;;;19.00;65.30;;;;;;5092431;28;20062;-74
2022/06/07 09:39:19;;;;;;;6.60;3.00;;;19.00;64.80;;;;;;5092853;28;20663;-72
2022/06/07 09:41:54;;;;;;;6.25;2.38;;;19.00;64.90;;;;;;5091163;28;20518;-72
2022/06/07 09:44:29;;;;;;;10.50;2.78;;;19.10;64.80;;;;;;5092562;28;20097;-73
2022/06/07 09:47:16;;;;;;;5.50;2.47;;;19.10;65.20;;;;;;5097529;28;20499;-69
2022/06/07 09:49:48;;;;;;;7.65;2.85;;;19.20;63.90;;;;;;5090215;28;20035;-72
2022/06/07 09:55:19;;;;;;;8.82;2.83;;;19.30;63.40;;;;;;5058564;27;20427;-72
2022/06/07 10:03:42;;;;;;;8.88;2.47;;;19.30;64.50;;;;;;5055230;27;20461;-70
2022/06/07 10:14:59;;;;;;;18.75;4.15;;;19.30;64.70;;;;;;5103376;27;20447;-66
2022/06/07 10:26:51;;;;;;;12.05;3.35;;;19.40;64.50;;;;;;5116623;27;1167764;-71
2022/06/07 10:29:25;;;;;;;8.02;3.00;;;19.40;64.30;;;;;;5121098;27;20074;-71
2022/06/07 10:31:59;;;;;;;9.80;3.30;;;19.40;64.00;;;;;;5124198;27;20150;-71
2022/06/07 10:34:49;;;;;;;7.65;3.17;;;19.40;64.50;;;;;;5124452;27;20136;-69
2022/06/07 10:37:36;;;;;;;5.75;2.75;;;19.50;63.40;;;;;;5127686;27;20042;-70
2022/06/07 10:40:29;;;;;;;5.68;2.78;;;19.50;63.20;;;;;;5121286;27;20051;-68
2022/06/07 10:45:39;;;;;;;8.70;2.22;;;19.60;63.30;;;;;;5059753;27;21187;-69
2022/06/07 10:48:12;;;;;;;6.63;2.90;;;19.50;63.20;;;;;;5074910;28;20105;-69
2022/06/07 10:51:01;;;;;;;7.00;2.60;;;19.50;63.20;;;;;;5065599;28;20071;-70
2022/06/07 10:53:33;;;;;;;6.18;2.95;;;19.60;63.40;;;;;;5065815;28;20074;-69
2022/06/07 10:56:11;;;;;;;9.43;3.13;;;19.60;64.50;;;;;;5060671;28;20052;-70
2022/06/07 11:09:46;;;;;;;6.10;3.65;;;19.80;63.90;;;;;;5102092;28;20043;-71
2022/06/07 11:12:17;;;;;;;4.32;3.60;;;19.80;64.00;;;;;;5100291;28;20033;-70
2022/06/07 11:17:55;;;;;;;7.07;3.13;;;19.90;63.70;;;;;;5086801;27;20122;-70
2022/06/07 11:20:27;;;;;;;5.72;3.83;;;19.90;63.80;;;;;;5091711;28;20133;-69
2022/06/07 11:23:02;;;;;;;7.75;3.10;;;20.00;63.80;;;;;;5069679;28;20687;-68
2022/06/07 11:28:25;;;;;;;6.32;3.65;;;20.00;63.60;;;;;;5083831;27;20450;-70
2022/06/07 11:30:53;;;;;;;9.82;3.10;;;20.20;63.50;;;;;;5082958;28;20048;-69
2022/06/07 11:39:22;;;;;;;7.22;3.30;;;20.30;62.70;;;;;;5067931;27;20481;-69
2022/06/07 11:41:52;;;;;;;7.07;2.67;;;20.40;62.70;;;;;;5069384;28;20162;-69
2022/06/07 11:47:01;;;;;;;6.53;2.97;;;20.50;62.50;;;;;;5097614;27;20489;-67
2022/06/07 11:55:15;;;;;;;7.15;3.55;;;20.60;62.60;;;;;;5134429;27;1157164;-68
2022/06/07 12:00:45;;;;;;;7.13;3.17;;;20.70;64.60;;;;;;5108247;27;20469;-69
2022/06/07 12:03:25;;;;;;;7.72;2.80;;;20.80;64.30;;;;;;5092939;28;20586;-70
2022/06/07 12:05:54;;;;;;;5.78;2.22;;;20.80;63.70;;;;;;5085062;28;20050;-69
2022/06/07 12:19:19;;;;;;;10.48;2.70;;;21.00;62.70;;;;;;5058976;27;20413;-64
2022/06/07 12:22:00;;;;;;;9.55;3.47;;;21.00;62.00;;;;;;5064486;28;20602;-68
2022/06/07 12:24:28;;;;;;;4.55;2.35;;;21.10;61.60;;;;;;5061836;28;20115;-72
2022/06/07 12:26:54;;;;;;;4.53;2.60;;;21.10;61.80;;;;;;5053521;28;20739;-70
2022/06/07 12:29:24;;;;;;;5.40;2.35;;;21.10;61.70;;;;;;5068104;28;20044;-71
2022/06/07 12:34:34;;;;;;;7.32;2.60;;;21.10;61.70;;;;;;5085503;27;20771;-69
2022/06/07 12:37:03;;;;;;;5.43;2.40;;;21.10;61.60;;;;;;5054181;28;20114;-69
2022/06/07 12:39:31;;;;;;;6.93;2.38;;;21.10;61.60;;;;;;5068223;28;20052;-67
2022/06/07 12:42:03;;;;;;;4.22;3.05;;;21.10;61.60;;;;;;5066751;28;20065;-69
2022/06/07 12:44:32;;;;;;;5.10;2.88;;;21.10;61.60;;;;;;5047991;28;20720;-72
2022/06/07 12:47:01;;;;;;;5.70;2.60;;;21.10;61.80;;;;;;5057119;28;20047;-72
2022/06/07 12:49:31;;;;;;;7.53;2.45;;;21.20;61.90;;;;;;5070924;28;20045;-69
2022/06/07 12:51:59;;;;;;;;;;;21.10;61.90;;;;;;5050880;28;20056;-72
2022/06/07 12:54:24;;;;;;;6.40;2.38;;;21.10;61.90;;;;;;5066862;28;20644;-72
2022/06/07 12:56:53;;;;;;;5.25;2.45;;;21.10;61.90;;;;;;5070085;28;20040;-70
2022/06/07 13:02:22;;;;;;;9.20;2.50;;;21.10;62.40;;;;;;5080741;27;20413;-71
2022/06/07 13:04:51;;;;;;;24.20;3.30;;;21.10;61.70;;;;;;5056099;28;20052;-72
2022/06/07 13:07:26;;;;;;;7.40;2.30;;;21.20;61.90;;;;;;5093905;28;20430;-71
2022/06/07 13:09:58;;;;;;;9.70;2.63;;;21.10;61.50;;;;;;5096573;28;20046;-71
2022/06/07 13:12:28;;;;;;;9.00;1.95;;;21.20;61.40;;;;;;5066941;28;20531;-73
2022/06/07 13:14:54;;;;;;;;;;;21.10;61.90;;;;;;5078484;28;20071;-72
2022/06/07 13:17:33;;;;;;;5.10;1.52;;;21.10;60.70;;;;;;5076674;28;19947;-71
2022/06/07 13:20:00;;;;;;;7.20;2.42;;;21.10;60.80;;;;;;5076641;28;20067;-73
2022/06/07 13:22:31;;;;;;;8.05;1.52;;;21.20;60.90;;;;;;5056601;28;20047;-73
2022/06/07 13:25:18;;;;;;;6.30;1.42;;;21.10;60.70;;;;;;5062750;28;20063;-74
2022/06/07 13:36:02;;;;;;;3.78;1.35;;;21.10;60.50;;;;;;5101721;27;20343;-72
2022/06/07 13:41:25;;;;;;;5.43;1.90;;;21.10;60.20;;;;;;5123081;27;20357;-73
2022/06/07 13:54:59;;;;;;;1.65;0.90;;;21.20;60.00;;;;;;5145522;27;20890;-72
2022/06/07 13:57:28;;;;;;;4.88;0.77;;;21.20;59.90;;;;;;5126287;27;20115;-71
2022/06/07 13:59:54;;;;;;;3.60;1.10;;;21.30;59.80;;;;;;5124844;27;20068;-71
2022/06/07 14:02:20;;;;;;;3.67;0.98;;;21.30;59.70;;;;;;5124864;27;20035;-72
2022/06/07 14:04:46;;;;;;;1.88;0.73;;;21.30;59.60;;;;;;5143976;27;20046;-70
2022/06/07 14:07:12;;;;;;;5.75;1.10;;;21.20;59.70;;;;;;5125688;27;20394;-73
2022/06/07 14:09:38;;;;;;;5.32;1.20;;;21.20;59.90;;;;;;5130318;27;20042;-72
2022/06/07 14:12:04;;;;;;;6.90;1.17;;;21.30;59.80;;;;;;5120455;27;20035;-74
2022/06/07 14:14:30;;;;;;;7.75;1.13;;;21.30;59.80;;;;;;5141308;27;20677;-75
2022/06/07 14:17:03;;;;;;;10.88;1.10;;;21.30;59.70;;;;;;5137439;27;20038;-73
2022/06/07 14:19:49;;;;;;;4.22;0.80;;;21.30;59.70;;;;;;5127383;27;20099;-72
2022/06/07 14:22:20;;;;;;;2.30;1.08;;;21.30;59.60;;;;;;5125110;27;20035;-72
2022/06/07 14:24:47;;;;;;;5.60;0.90;;;21.30;59.60;;;;;;5126220;27;20668;-72
2022/06/07 14:27:16;;;;;;;4.43;1.05;;;21.30;59.70;;;;;;5128019;27;20051;-73
2022/06/07 14:29:43;;;;;;;6.15;1.35;;;21.30;59.60;;;;;;5145853;27;20175;-73
2022/06/07 14:32:17;;;;;;;3.92;0.93;;;21.20;59.60;;;;;;5127884;27;20043;-72
2022/06/07 14:34:43;;;;;;;6.05;1.42;;;21.20;59.60;;;;;;5145970;27;20059;-73
2022/06/07 14:37:13;;;;;;;3.38;0.82;;;21.20;59.60;;;;;;5146338;27;20418;-72
2022/06/07 14:39:39;;;;;;;2.03;0.93;;;21.10;59.60;;;;;;5145210;27;20035;-72
2022/06/07 14:42:05;;;;;;;2.78;1.10;;;21.10;59.80;;;;;;5127190;27;20495;-73
2022/06/07 14:44:31;;;;;;;1.80;0.85;;;21.00;59.70;;;;;;5127380;27;20079;-73
2022/06/07 14:46:57;;;;;;;4.43;2.03;;;21.00;59.70;;;;;;5126390;27;20072;-73
2022/06/07 14:49:29;;;;;;;3.08;1.00;;;21.00;59.80;;;;;;5128832;27;20054;-73
2022/06/07 14:51:56;;;;;;;3.15;1.38;;;20.90;59.80;;;;;;5144869;27;20114;-73
2022/06/07 14:54:32;;;;;;;4.22;1.13;;;20.90;59.90;;;;;;5145354;27;20050;-73
2022/06/07 14:56:58;;;;;;;4.80;1.40;;;20.90;59.80;;;;;;5145166;27;20038;-72
2022/06/07 14:59:25;;;;;;;1.95;1.08;;;20.90;59.80;;;;;;5146005;27;20145;-73
2022/06/07 15:04:39;;;;;;;3.03;1.05;;;20.90;60.50;;;;;;5085977;28;20459;-71
2022/06/07 15:07:19;;;;;;;1.92;1.05;;;20.90;59.80;;;;;;5086437;28;20059;-72
2022/06/07 15:09:45;;;;;;;2.85;1.35;;;20.80;59.80;;;;;;5085022;28;20032;-71
2022/06/07 15:12:11;;;;;;;2.55;1.25;;;20.80;59.80;;;;;;5084627;28;20051;-72
2022/06/07 15:14:36;;;;;;;3.75;1.05;;;20.80;59.90;;;;;;5084002;28;20036;-71
2022/06/07 15:17:05;;;;;;;2.33;0.77;;;20.80;59.90;;;;;;5084386;28;20068;-71
2022/06/07 15:19:33;;;;;;;2.72;1.10;;;20.80;59.80;;;;;;5083212;28;20050;-71
2022/06/07 15:22:00;;;;;;;2.88;1.45;;;20.80;59.80;;;;;;5084567;28;20111;-71
2022/06/07 15:24:26;;;;;;;4.22;1.10;;;20.80;59.80;;;;;;5102641;28;20112;-72
2022/06/07 15:26:52;;;;;;;2.83;0.98;;;20.80;59.70;;;;;;5085837;28;20555;-72
2022/06/07 15:32:13;;;;;;;2.35;1.20;;;20.80;59.70;;;;;;5085394;28;20463;-71